Time;durP1;ratioP1;P1;durP2;ratioP2;P2;SDS_P1;SDS_P2;PMS_P1;PMS_P2;Temp;Humidity;BMP_temperature;BMP_pressure;BME280_temperature;BME280_humidity;BME280_pressure;Samples;Min_cycle;Max_cycle;Signal;HPM_P1;HPM_P2
2022/12/07 00:01:09;;;;;;;13.57;9.23;;;4.50;99.90;;;;;;5028710;28;20029;-82
2022/12/07 00:03:36;;;;;;;14.25;8.85;;;4.50;99.90;;;;;;5027880;28;20044;-81
2022/12/07 00:06:04;;;;;;;11.73;9.05;;;4.40;99.90;;;;;;4997882;28;20052;-82
2022/12/07 00:08:31;;;;;;;10.43;8.07;;;4.30;99.90;;;;;;5047610;28;20048;-81
2022/12/07 00:11:06;;;;;;;16.10;10.00;;;4.20;99.90;;;;;;5012609;28;20037;-83
2022/12/07 00:13:34;;;;;;;14.20;9.70;;;4.20;99.90;;;;;;5034406;28;20041;-83
2022/12/07 00:16:06;;;;;;;12.15;7.93;;;4.10;99.90;;;;;;5045457;28;20380;-81
2022/12/07 00:18:33;;;;;;;9.05;7.47;;;4.10;99.90;;;;;;5031063;28;20056;-82
2022/12/07 00:21:21;;;;;;;13.52;8.75;;;4.00;99.90;;;;;;5036942;28;20379;-82
2022/12/07 00:23:49;;;;;;;11.85;8.32;;;4.00;99.90;;;;;;5028240;28;20033;-81
2022/12/07 00:26:21;;;;;;;13.23;9.82;;;4.00;99.90;;;;;;5032227;28;20053;-82
2022/12/07 00:28:49;;;;;;;11.80;9.13;;;3.90;99.90;;;;;;5026874;28;20037;-82
2022/12/07 00:31:17;;;;;;;15.17;9.57;;;3.90;99.90;;;;;;5044692;28;20036;-83
2022/12/07 00:33:44;;;;;;;16.10;10.38;;;3.90;99.90;;;;;;5044577;28;20041;-83
2022/12/07 00:36:13;;;;;;;9.38;8.00;;;3.90;99.90;;;;;;5035076;28;20486;-83
2022/12/07 00:38:40;;;;;;;11.13;7.17;;;3.90;99.90;;;;;;5008295;28;20034;-83
2022/12/07 00:41:27;;;;;;;11.68;8.90;;;3.80;99.90;;;;;;5028165;28;20022;-82
2022/12/07 00:43:54;;;;;;;9.07;6.07;;;3.80;99.90;;;;;;5049895;28;20048;-82
2022/12/07 00:46:21;;;;;;;15.07;9.60;;;3.80;99.90;;;;;;5049436;28;20048;-82
2022/12/07 00:48:49;;;;;;;12.00;7.68;;;3.80;99.90;;;;;;5024823;28;20040;-82
2022/12/07 00:51:17;;;;;;;10.90;9.27;;;3.70;99.90;;;;;;5041687;28;20037;-82
2022/12/07 00:53:44;;;;;;;14.27;8.53;;;3.70;99.90;;;;;;5041018;28;20044;-81
2022/12/07 00:56:36;;;;;;;10.07;7.53;;;3.70;99.90;;;;;;5010250;28;20072;-81
2022/12/07 00:59:04;;;;;;;12.90;6.40;;;3.70;99.90;;;;;;5020971;28;20054;-82
2022/12/07 01:01:33;;;;;;;10.82;6.88;;;3.70;99.90;;;;;;5010576;28;20025;-82
2022/12/07 01:04:03;;;;;;;14.68;9.07;;;3.70;99.90;;;;;;5030986;28;20036;-83
2022/12/07 01:06:30;;;;;;;11.23;7.70;;;3.60;99.90;;;;;;5025565;28;20045;-83
2022/12/07 01:08:57;;;;;;;12.23;7.97;;;3.60;99.90;;;;;;5026443;28;20367;-82
2022/12/07 01:11:27;;;;;;;12.40;8.47;;;3.60;99.90;;;;;;5017595;28;20053;-81
2022/12/07 01:13:55;;;;;;;15.07;8.50;;;3.60;99.90;;;;;;5046807;28;20033;-82
2022/12/07 01:16:25;;;;;;;13.45;8.35;;;3.50;99.90;;;;;;5027654;28;20049;-82
2022/12/07 01:18:54;;;;;;;13.55;8.27;;;3.50;99.90;;;;;;5009877;28;20040;-82
2022/12/07 01:21:23;;;;;;;15.35;8.52;;;3.50;99.90;;;;;;5014885;28;20387;-82
2022/12/07 01:23:50;;;;;;;11.23;7.82;;;3.50;99.90;;;;;;5043689;28;20040;-81
2022/12/07 01:26:20;;;;;;;13.48;9.95;;;3.50;99.90;;;;;;5047253;28;20057;-84
2022/12/07 01:28:47;;;;;;;15.50;11.85;;;3.50;99.90;;;;;;5025430;28;20029;-83
2022/12/07 01:31:17;;;;;;;15.23;10.20;;;3.50;99.90;;;;;;5033659;28;20036;-83
2022/12/07 01:33:49;;;;;;;20.00;11.90;;;3.50;99.90;;;;;;5034515;28;20379;-83
2022/12/07 01:36:36;;;;;;;16.50;11.00;;;3.50;99.90;;;;;;5027509;28;20045;-82
2022/12/07 01:39:06;;;;;;;14.43;10.85;;;3.50;99.90;;;;;;5016297;28;20045;-82
2022/12/07 01:41:35;;;;;;;15.27;10.47;;;3.50;99.90;;;;;;5035599;28;20020;-82
2022/12/07 01:44:19;;;;;;;14.77;10.10;;;3.40;99.90;;;;;;5007613;28;20033;-83
2022/12/07 01:46:53;;;;;;;13.18;9.55;;;3.40;99.90;;;;;;5020367;28;20059;-81
2022/12/07 01:49:46;;;;;;;16.17;10.75;;;3.50;99.90;;;;;;5025499;28;20375;-81
2022/12/07 01:52:42;;;;;;;14.93;9.27;;;3.50;99.90;;;;;;5042726;28;20535;-82
2022/12/07 01:55:12;;;;;;;13.85;8.75;;;3.40;99.90;;;;;;4984169;28;20514;-82
2022/12/07 01:57:45;;;;;;;19.15;12.10;;;3.40;99.90;;;;;;5017658;28;20026;-82
2022/12/07 02:00:12;;;;;;;14.70;10.33;;;3.30;99.90;;;;;;5015299;28;20033;-81
2022/12/07 02:02:55;;;;;;;11.93;9.18;;;3.30;99.90;;;;;;5026614;28;20029;-82
2022/12/07 02:05:24;;;;;;;14.10;8.82;;;3.30;99.90;;;;;;5042799;28;20029;-82
2022/12/07 02:07:52;;;;;;;14.68;9.65;;;3.30;99.90;;;;;;5022737;28;20029;-82
2022/12/07 02:10:19;;;;;;;14.77;11.13;;;3.30;99.90;;;;;;5026436;28;20475;-82
2022/12/07 02:12:50;;;;;;;14.07;8.60;;;3.20;99.90;;;;;;5019139;28;20029;-82
2022/12/07 02:15:18;;;;;;;17.83;9.55;;;3.20;99.90;;;;;;5026999;28;20037;-81
2022/12/07 02:17:57;;;;;;;16.60;11.52;;;3.30;99.90;;;;;;5048060;28;20058;-81
2022/12/07 02:20:38;;;;;;;19.98;10.35;;;3.20;99.90;;;;;;5029998;28;20036;-83
2022/12/07 02:23:35;;;;;;;17.40;9.67;;;3.20;99.90;;;;;;5029928;28;20037;-82
2022/12/07 02:26:43;;;;;;;17.00;10.67;;;3.20;99.90;;;;;;5015493;28;20392;-82
2022/12/07 02:29:27;;;;;;;15.13;10.40;;;3.20;99.90;;;;;;5015224;28;20076;-82
2022/12/07 02:32:06;;;;;;;14.75;10.43;;;3.20;99.90;;;;;;5026358;28;20033;-83
2022/12/07 02:34:46;;;;;;;18.03;10.00;;;3.20;99.90;;;;;;5029964;28;20047;-82
2022/12/07 02:37:29;;;;;;;14.10;10.68;;;3.10;99.90;;;;;;5023282;28;20025;-82
2022/12/07 02:40:16;;;;;;;19.43;10.30;;;3.10;99.90;;;;;;5026452;28;20485;-82
2022/12/07 02:43:05;;;;;;;14.60;8.77;;;3.10;99.90;;;;;;5007703;28;20281;-83
2022/12/07 02:45:34;;;;;;;16.67;10.67;;;3.10;99.90;;;;;;5013964;28;20627;-82
2022/12/07 02:48:02;;;;;;;15.00;9.20;;;3.00;99.90;;;;;;5027026;28;20029;-82
2022/12/07 02:50:28;;;;;;;11.53;7.30;;;3.00;99.90;;;;;;5032306;28;20040;-82
2022/12/07 02:52:55;;;;;;;15.77;8.33;;;3.00;99.90;;;;;;5043359;28;20026;-81
2022/12/07 02:55:28;;;;;;;11.27;7.17;;;3.00;99.90;;;;;;5033098;28;20029;-83
2022/12/07 02:58:12;;;;;;;15.18;8.73;;;3.00;99.90;;;;;;5027253;28;20044;-82
2022/12/07 03:00:52;;;;;;;12.85;8.40;;;3.00;99.90;;;;;;5043430;28;20035;-83
2022/12/07 03:03:18;;;;;;;12.47;6.63;;;3.00;99.90;;;;;;5039009;28;20040;-81
2022/12/07 03:06:05;;;;;;;15.80;8.47;;;3.00;99.90;;;;;;5046960;28;20037;-81
2022/12/07 03:09:26;;;;;;;16.30;8.50;;;3.10;99.90;;;;;;5014357;28;20053;-81
2022/12/07 03:12:07;;;;;;;15.13;8.45;;;3.10;99.90;;;;;;4998804;28;20037;-82
2022/12/07 03:14:41;;;;;;;12.82;8.77;;;3.20;99.90;;;;;;5028560;28;20151;-81
2022/12/07 03:17:14;;;;;;;12.40;7.67;;;3.30;99.90;;;;;;4996290;28;20046;-81
2022/12/07 03:19:42;;;;;;;21.45;9.73;;;3.30;99.90;;;;;;5025064;28;20033;-83
2022/12/07 03:22:11;;;;;;;22.08;9.52;;;3.30;99.90;;;;;;5011330;28;20034;-83
2022/12/07 03:25:00;;;;;;;13.35;6.97;;;3.30;99.90;;;;;;5045523;28;20037;-83
2022/12/07 03:27:33;;;;;;;19.67;8.18;;;3.40;99.90;;;;;;5030672;28;20041;-82
2022/12/07 03:30:04;;;;;;;13.35;7.70;;;3.40;99.90;;;;;;5026995;28;20075;-83
2022/12/07 03:32:52;;;;;;;12.63;6.72;;;3.50;99.90;;;;;;5026964;28;20040;-82
2022/12/07 03:35:29;;;;;;;14.00;8.05;;;3.50;99.90;;;;;;5048154;28;20097;-82
2022/12/07 03:38:00;;;;;;;13.27;8.48;;;3.50;99.90;;;;;;5048362;28;20045;-83
2022/12/07 03:40:44;;;;;;;10.68;5.93;;;3.50;99.90;;;;;;5035924;28;20508;-82
2022/12/07 03:43:11;;;;;;;11.00;5.43;;;3.50;99.90;;;;;;5050429;28;20497;-83
2022/12/07 03:46:06;;;;;;;10.80;5.70;;;3.60;99.90;;;;;;5045032;28;20042;-81
2022/12/07 03:48:40;;;;;;;13.15;6.35;;;3.50;99.90;;;;;;5028538;28;20050;-81
2022/12/07 03:51:18;;;;;;;13.32;6.15;;;3.60;99.90;;;;;;5023804;28;20041;-83
2022/12/07 03:53:54;;;;;;;10.75;5.13;;;3.60;99.90;;;;;;5037736;28;20033;-82
2022/12/07 03:56:22;;;;;;;12.27;5.50;;;3.70;99.90;;;;;;4991853;28;20056;-83
2022/12/07 03:58:49;;;;;;;16.05;5.93;;;3.70;99.90;;;;;;5043661;28;20044;-82
2022/12/07 04:01:17;;;;;;;8.95;4.72;;;3.70;99.90;;;;;;5039055;28;20041;-83
2022/12/07 04:03:43;;;;;;;9.43;5.75;;;3.70;99.90;;;;;;5026548;28;20029;-82
2022/12/07 04:06:10;;;;;;;12.23;4.95;;;3.70;99.90;;;;;;5030379;28;20043;-82
2022/12/07 04:08:36;;;;;;;11.75;5.40;;;3.70;99.90;;;;;;5025707;28;20474;-83
2022/12/07 04:11:03;;;;;;;16.98;5.90;;;3.80;99.90;;;;;;5036077;28;20033;-82
2022/12/07 04:13:29;;;;;;;9.02;4.55;;;3.70;99.90;;;;;;5033409;28;20040;-83
2022/12/07 04:15:55;;;;;;;8.23;3.97;;;3.70;99.90;;;;;;5047162;28;20431;-80
2022/12/07 04:18:22;;;;;;;7.97;3.67;;;3.70;99.90;;;;;;5041720;28;20052;-84
2022/12/07 04:20:48;;;;;;;8.15;4.22;;;3.60;99.90;;;;;;5013376;28;20033;-84
2022/12/07 04:23:14;;;;;;;8.45;3.75;;;3.60;99.90;;;;;;5047714;28;20352;-83
2022/12/07 04:25:41;;;;;;;8.40;4.50;;;3.60;99.90;;;;;;5038591;28;20044;-84
2022/12/07 04:28:07;;;;;;;7.55;3.67;;;3.50;99.90;;;;;;5028798;28;20038;-83
2022/12/07 04:30:33;;;;;;;12.30;3.90;;;3.50;99.90;;;;;;5038629;28;20037;-82
2022/12/07 04:33:00;;;;;;;11.10;3.70;;;3.50;99.90;;;;;;5045863;28;20033;-82
2022/12/07 04:35:26;;;;;;;11.43;3.97;;;3.50;99.90;;;;;;5035798;28;20046;-82
2022/12/07 04:37:52;;;;;;;8.77;3.00;;;3.50;99.90;;;;;;5023665;28;20048;-83
2022/12/07 04:40:18;;;;;;;12.23;4.43;;;3.60;99.90;;;;;;5048424;28;20037;-83
2022/12/07 04:42:45;;;;;;;16.42;4.28;;;3.60;99.90;;;;;;5042514;28;20468;-83
2022/12/07 04:45:11;;;;;;;12.40;3.97;;;3.70;99.90;;;;;;5028816;28;20116;-84
2022/12/07 04:47:37;;;;;;;13.70;4.13;;;3.70;99.90;;;;;;5032528;28;20036;-83
2022/12/07 04:50:05;;;;;;;13.93;4.10;;;3.70;99.90;;;;;;5027589;28;20558;-82
2022/12/07 04:52:31;;;;;;;10.00;3.90;;;3.80;99.90;;;;;;5026995;28;20022;-83
2022/12/07 04:54:57;;;;;;;11.97;3.30;;;3.80;99.90;;;;;;5055153;28;20041;-84
2022/12/07 04:57:24;;;;;;;13.88;4.30;;;3.80;99.90;;;;;;5028496;28;20380;-84
2022/12/07 04:59:50;;;;;;;9.35;3.63;;;3.80;99.90;;;;;;5027562;28;20033;-84
2022/12/07 05:02:16;;;;;;;6.57;3.53;;;3.80;99.90;;;;;;5047678;28;20029;-82
2022/12/07 05:04:42;;;;;;;5.53;2.40;;;3.80;99.90;;;;;;5045529;28;20444;-82
2022/12/07 05:07:09;;;;;;;10.23;3.22;;;3.70;99.90;;;;;;5043396;28;20400;-84
2022/12/07 05:09:35;;;;;;;6.30;2.33;;;3.70;99.90;;;;;;5034775;28;20037;-82
2022/12/07 05:12:01;;;;;;;9.90;3.05;;;3.60;99.90;;;;;;5024263;28;20494;-83
2022/12/07 05:14:28;;;;;;;9.77;2.58;;;3.50;99.90;;;;;;5029259;28;20025;-83
2022/12/07 05:16:54;;;;;;;11.48;3.30;;;3.40;99.90;;;;;;5015216;28;20053;-83
2022/12/07 05:19:20;;;;;;;9.90;2.85;;;3.40;99.90;;;;;;5040025;28;20055;-83
2022/12/07 05:21:47;;;;;;;6.40;2.08;;;3.30;99.90;;;;;;5029824;28;20044;-82
2022/12/07 05:24:15;;;;;;;9.17;1.70;;;3.20;99.90;;;;;;5036123;28;20037;-82
2022/12/07 05:26:42;;;;;;;5.20;2.28;;;3.20;99.90;;;;;;5026426;28;20071;-81
2022/12/07 05:29:12;;;;;;;9.30;2.10;;;3.20;99.90;;;;;;5050204;28;20514;-82
2022/12/07 05:31:38;;;;;;;4.40;1.55;;;3.20;99.90;;;;;;5012183;28;20025;-82
2022/12/07 05:34:05;;;;;;;6.97;2.00;;;3.20;99.90;;;;;;5024275;28;20029;-82
2022/12/07 05:36:31;;;;;;;10.52;2.63;;;3.20;99.90;;;;;;5024312;28;20040;-82
2022/12/07 05:38:58;;;;;;;8.87;1.90;;;3.20;99.90;;;;;;5025226;28;20033;-82
2022/12/07 05:44:09;;;;;;;7.73;2.07;;;3.20;99.90;;;;;;5025962;28;20041;-82
2022/12/07 05:46:37;;;;;;;9.13;2.30;;;3.30;99.90;;;;;;5036903;28;20048;-81
2022/12/07 05:49:03;;;;;;;8.48;2.70;;;3.30;99.90;;;;;;5028979;28;20043;-82
2022/12/07 05:51:30;;;;;;;10.52;3.25;;;3.30;99.90;;;;;;5029420;28;20040;-82
2022/12/07 05:53:56;;;;;;;6.28;2.13;;;3.40;99.90;;;;;;5047818;28;20463;-82
2022/12/07 05:56:23;;;;;;;9.17;1.87;;;3.40;99.90;;;;;;5018393;28;20056;-81
2022/12/07 06:01:34;;;;;;;7.40;1.77;;;3.20;99.90;;;;;;5027807;28;20399;-82
2022/12/07 06:04:00;;;;;;;9.60;2.05;;;3.20;99.90;;;;;;5051151;28;20471;-83
2022/12/07 06:06:27;;;;;;;7.63;2.00;;;3.20;99.90;;;;;;5022621;28;20029;-82
2022/12/07 06:08:53;;;;;;;10.43;2.63;;;3.20;99.90;;;;;;5030593;28;20025;-83
2022/12/07 06:14:05;;;;;;;6.65;2.10;;;3.10;99.90;;;;;;5033316;28;20033;-82
2022/12/07 06:16:31;;;;;;;11.43;2.70;;;3.00;99.90;;;;;;5029985;28;20033;-83
2022/12/07 06:18:57;;;;;;;6.65;2.15;;;3.00;99.90;;;;;;5042434;28;20403;-83
2022/12/07 06:21:25;;;;;;;10.10;2.28;;;3.00;99.90;;;;;;5026679;28;20398;-83
2022/12/07 06:23:52;;;;;;;7.68;2.38;;;2.90;99.90;;;;;;5051002;28;20051;-83
2022/12/07 06:26:18;;;;;;;7.45;2.17;;;2.90;99.90;;;;;;5008947;28;20045;-82
2022/12/07 06:28:44;;;;;;;6.20;1.92;;;2.90;99.90;;;;;;5032028;28;20067;-83
2022/12/07 06:31:11;;;;;;;9.33;1.80;;;2.80;99.90;;;;;;5012251;28;20048;-83
2022/12/07 06:33:37;;;;;;;11.07;2.47;;;2.80;99.90;;;;;;5025692;28;20030;-83
2022/12/07 06:36:04;;;;;;;8.80;2.28;;;2.80;99.90;;;;;;5046813;28;20041;-81
2022/12/07 06:38:30;;;;;;;8.20;2.08;;;2.80;99.90;;;;;;5024817;28;20041;-82
2022/12/07 06:40:56;;;;;;;4.37;1.60;;;2.70;99.90;;;;;;5027542;28;20044;-83
2022/12/07 06:43:23;;;;;;;11.53;2.37;;;2.80;99.90;;;;;;5033139;28;20033;-82
2022/12/07 06:45:49;;;;;;;6.88;1.67;;;2.70;99.90;;;;;;5038754;28;20360;-82
2022/12/07 06:48:15;;;;;;;14.43;2.58;;;2.70;99.90;;;;;;5041429;28;20033;-83
2022/12/07 06:50:44;;;;;;;8.43;1.93;;;2.70;99.90;;;;;;5009488;28;20380;-82
2022/12/07 06:53:11;;;;;;;6.63;1.83;;;2.70;99.90;;;;;;5025727;28;20379;-82
2022/12/07 06:55:37;;;;;;;9.97;1.90;;;2.80;99.90;;;;;;5043740;28;20046;-83
2022/12/07 06:58:03;;;;;;;7.28;2.03;;;2.80;99.90;;;;;;5045959;28;20021;-83
2022/12/07 07:00:30;;;;;;;8.45;1.90;;;2.80;99.90;;;;;;5041835;28;20053;-83
2022/12/07 07:02:56;;;;;;;7.38;1.50;;;2.90;99.90;;;;;;5017705;28;20055;-82
2022/12/07 07:05:23;;;;;;;7.93;2.03;;;2.80;99.90;;;;;;5037409;28;20049;-81
2022/12/07 07:07:50;;;;;;;7.13;2.00;;;2.80;99.90;;;;;;5030449;28;20484;-83
2022/12/07 07:10:16;;;;;;;9.43;1.60;;;2.80;99.90;;;;;;5028681;28;20045;-83
2022/12/07 07:12:43;;;;;;;6.55;1.23;;;2.80;99.90;;;;;;5041913;28;20034;-78
2022/12/07 07:15:11;;;;;;;8.50;1.50;;;2.80;99.90;;;;;;5024343;28;20041;-80
2022/12/07 07:17:37;;;;;;;8.85;2.30;;;2.80;99.90;;;;;;5031330;28;20037;-80
2022/12/07 07:20:05;;;;;;;9.40;1.77;;;2.80;99.90;;;;;;5031166;28;20052;-81
2022/12/07 07:22:31;;;;;;;8.50;1.40;;;2.80;99.90;;;;;;5037893;28;20029;-81
2022/12/07 07:24:58;;;;;;;4.60;1.58;;;2.80;99.90;;;;;;5016139;28;20033;-80
2022/12/07 07:27:24;;;;;;;8.85;1.77;;;2.70;99.90;;;;;;5033657;28;20033;-82
2022/12/07 07:29:50;;;;;;;6.90;2.13;;;2.70;99.90;;;;;;5024991;28;20053;-80
2022/12/07 07:32:17;;;;;;;9.77;1.43;;;2.70;99.90;;;;;;5043149;28;20044;-82
2022/12/07 07:34:43;;;;;;;10.02;1.73;;;2.80;99.90;;;;;;5015507;28;20483;-80
2022/12/07 07:37:12;;;;;;;6.97;1.55;;;2.70;99.90;;;;;;5028775;28;20036;-81
2022/12/07 07:39:38;;;;;;;7.55;2.28;;;2.70;99.90;;;;;;5045342;28;20064;-82
2022/12/07 07:42:07;;;;;;;11.25;2.15;;;2.70;99.90;;;;;;5019715;28;20037;-81
2022/12/07 07:44:35;;;;;;;9.57;2.50;;;2.70;99.90;;;;;;5040215;28;20042;-81
2022/12/07 07:47:02;;;;;;;8.60;2.47;;;2.80;99.90;;;;;;5008185;28;20495;-81
2022/12/07 07:49:28;;;;;;;9.90;2.20;;;2.80;99.90;;;;;;5023514;28;20037;-81
2022/12/07 07:51:54;;;;;;;10.07;2.28;;;2.80;99.90;;;;;;5024696;28;20028;-81
2022/12/07 07:54:20;;;;;;;11.45;1.90;;;2.80;99.90;;;;;;5041104;28;20034;-80
2022/12/07 07:56:47;;;;;;;6.57;1.73;;;2.80;99.90;;;;;;5044471;28;20025;-81
2022/12/07 07:59:14;;;;;;;8.23;2.20;;;2.90;99.90;;;;;;5028325;28;21225;-81
2022/12/07 08:01:41;;;;;;;15.50;2.43;;;2.90;99.90;;;;;;5011993;28;20503;-81
2022/12/07 08:04:07;;;;;;;8.43;2.50;;;2.90;99.90;;;;;;5024573;28;20045;-81
2022/12/07 08:06:33;;;;;;;8.90;1.73;;;2.90;99.90;;;;;;5046126;28;20029;-81
2022/12/07 08:09:00;;;;;;;7.03;1.85;;;2.90;99.90;;;;;;5028443;28;20475;-81
2022/12/07 08:11:26;;;;;;;7.35;1.92;;;3.00;99.90;;;;;;5031802;28;20100;-81
2022/12/07 08:13:52;;;;;;;7.07;1.53;;;3.00;99.90;;;;;;5022204;28;20036;-80
2022/12/07 08:16:19;;;;;;;8.67;1.60;;;3.00;99.90;;;;;;5027143;28;20041;-81
2022/12/07 08:18:45;;;;;;;6.60;1.15;;;3.10;99.90;;;;;;5024310;28;20618;-81
2022/12/07 08:21:14;;;;;;;9.52;2.45;;;3.30;99.90;;;;;;5027035;28;20033;-81
2022/12/07 08:23:40;;;;;;;11.32;2.42;;;3.40;99.90;;;;;;5022850;28;20120;-81
2022/12/07 08:26:10;;;;;;;7.95;1.73;;;3.60;99.90;;;;;;5033662;28;20035;-81
2022/12/07 08:28:36;;;;;;;7.55;1.88;;;3.70;99.90;;;;;;5034655;28;20136;-81
2022/12/07 08:31:13;;;;;;;8.05;1.30;;;3.80;99.90;;;;;;5043518;28;20021;-81
2022/12/07 08:33:40;;;;;;;15.30;2.35;;;3.90;99.90;;;;;;5006729;28;20029;-86
2022/12/07 08:36:11;;;;;;;9.55;2.65;;;4.00;99.90;;;;;;5021866;28;20044;-81
2022/12/07 08:38:39;;;;;;;11.55;2.13;;;4.10;99.90;;;;;;5027661;28;20045;-81
2022/12/07 08:41:07;;;;;;;10.93;1.92;;;4.10;99.90;;;;;;5042248;28;20029;-81
2022/12/07 08:43:34;;;;;;;10.82;2.33;;;4.10;99.90;;;;;;5029534;28;20038;-81
2022/12/07 08:46:30;;;;;;;8.07;1.95;;;4.10;99.90;;;;;;5023153;28;20407;-81
2022/12/07 08:49:02;;;;;;;13.10;2.28;;;4.20;99.90;;;;;;4998584;28;20046;-82
2022/12/07 08:51:28;;;;;;;6.85;1.70;;;4.10;99.90;;;;;;5013900;28;20040;-81
2022/12/07 08:53:56;;;;;;;8.20;1.55;;;4.10;99.90;;;;;;5044579;28;20067;-81
2022/12/07 08:56:22;;;;;;;7.93;2.05;;;4.00;99.90;;;;;;5036610;28;20033;-78
2022/12/07 08:58:49;;;;;;;9.35;1.88;;;4.00;99.90;;;;;;5025667;28;20559;-78
2022/12/07 09:01:15;;;;;;;7.30;1.83;;;3.90;99.90;;;;;;5027737;28;20056;-79
2022/12/07 09:03:41;;;;;;;7.35;2.40;;;3.90;99.90;;;;;;5025209;28;20045;-81
2022/12/07 09:06:08;;;;;;;6.28;2.00;;;3.80;99.90;;;;;;5037299;28;20041;-81
2022/12/07 09:08:42;;;;;;;5.00;1.25;;;3.90;99.90;;;;;;5018634;28;20041;-81
2022/12/07 09:11:08;;;;;;;5.75;1.77;;;4.00;99.90;;;;;;5033148;28;20499;-82
2022/12/07 09:13:35;;;;;;;13.52;2.35;;;4.10;99.90;;;;;;5028933;28;20040;-81
2022/12/07 09:16:01;;;;;;;7.20;1.75;;;4.20;99.90;;;;;;5026407;28;20030;-82
2022/12/07 09:18:27;;;;;;;3.30;1.50;;;4.20;99.90;;;;;;5020478;28;20041;-79
2022/12/07 09:20:54;;;;;;;5.10;1.90;;;4.20;99.90;;;;;;5025261;28;20025;-80
2022/12/07 09:23:20;;;;;;;5.57;2.38;;;4.30;99.90;;;;;;5034367;28;20044;-80
2022/12/07 09:25:46;;;;;;;6.25;1.70;;;4.30;99.90;;;;;;5007669;28;20028;-79
2022/12/07 09:28:12;;;;;;;13.13;2.53;;;4.40;99.90;;;;;;5034368;28;20037;-81
2022/12/07 09:30:44;;;;;;;12.57;2.78;;;4.50;99.90;;;;;;5036959;28;20443;-80
2022/12/07 09:33:11;;;;;;;8.35;2.30;;;4.60;99.90;;;;;;5002160;28;20052;-84
2022/12/07 09:35:37;;;;;;;9.90;2.60;;;4.70;99.90;;;;;;5009328;28;20048;-82
2022/12/07 09:38:03;;;;;;;8.18;2.13;;;4.80;99.90;;;;;;5020023;28;20021;-83
2022/12/07 09:40:29;;;;;;;7.32;1.92;;;5.00;99.90;;;;;;5029457;28;20913;-82
2022/12/07 09:42:56;;;;;;;10.20;1.95;;;5.20;99.90;;;;;;5039867;28;20387;-82
2022/12/07 09:45:35;;;;;;;8.93;1.85;;;5.20;99.90;;;;;;5025731;28;20025;-82
2022/12/07 09:48:03;;;;;;;6.85;1.20;;;5.30;99.90;;;;;;4998413;28;20072;-81
2022/12/07 09:50:30;;;;;;;3.70;1.10;;;5.40;99.90;;;;;;5025376;28;20033;-82
2022/12/07 09:53:19;;;;;;;4.18;1.30;;;5.50;99.90;;;;;;5026538;28;20033;-85
2022/12/07 09:55:46;;;;;;;5.05;1.20;;;5.80;99.90;;;;;;5019158;28;20387;-82
2022/12/07 09:58:26;;;;;;;4.68;1.23;;;6.00;99.90;;;;;;5013900;28;20452;-82
2022/12/07 10:00:59;;;;;;;5.78;0.90;;;6.30;99.90;;;;;;5027791;28;20475;-83
2022/12/07 10:03:29;;;;;;;6.15;1.20;;;6.30;99.90;;;;;;5026964;28;20025;-84
2022/12/07 10:05:56;;;;;;;3.15;0.47;;;6.40;99.90;;;;;;5022312;28;20021;-82
2022/12/07 10:08:25;;;;;;;4.82;1.30;;;6.50;99.90;;;;;;5040088;28;20094;-81
2022/12/07 10:10:56;;;;;;;2.97;0.80;;;6.70;99.90;;;;;;5040824;28;20021;-82
2022/12/07 10:13:42;;;;;;;3.38;0.60;;;7.00;99.90;;;;;;5030449;28;20037;-83
2022/12/07 10:16:39;;;;;;;7.00;0.88;;;7.40;99.90;;;;;;5005595;28;20064;-83
2022/12/07 10:19:27;;;;;;;3.45;0.60;;;7.70;99.90;;;;;;5034626;28;20086;-82
2022/12/07 10:22:01;;;;;;;5.38;1.17;;;7.60;99.90;;;;;;5030888;28;20032;-83
2022/12/07 10:24:27;;;;;;;7.70;0.90;;;7.40;99.90;;;;;;5031316;28;20428;-83
2022/12/07 10:26:54;;;;;;;8.70;1.13;;;7.20;99.90;;;;;;5019721;28;20884;-82
2022/12/07 10:29:29;;;;;;;4.47;1.15;;;6.90;99.90;;;;;;5048616;28;20053;-81
2022/12/07 10:31:59;;;;;;;5.10;1.10;;;6.70;99.90;;;;;;5033566;28;20032;-82
2022/12/07 10:34:32;;;;;;;6.22;1.08;;;6.60;99.90;;;;;;5052267;28;20026;-82
2022/12/07 10:37:17;;;;;;;4.70;1.10;;;6.50;99.90;;;;;;4996999;28;20467;-82
2022/12/07 10:39:52;;;;;;;4.93;0.98;;;6.40;99.90;;;;;;5030345;28;20033;-81
2022/12/07 10:42:22;;;;;;;2.85;0.90;;;6.30;99.90;;;;;;5025814;28;20030;-82
2022/12/07 10:45:07;;;;;;;4.25;1.23;;;6.20;99.90;;;;;;4997496;28;20037;-81
2022/12/07 10:48:05;;;;;;;4.10;1.00;;;6.20;99.90;;;;;;5024580;28;20204;-82
2022/12/07 10:50:43;;;;;;;5.43;1.02;;;6.10;99.90;;;;;;5026477;28;20037;-82
2022/12/07 10:53:34;;;;;;;5.53;1.30;;;6.20;99.90;;;;;;5012919;28;20420;-82
2022/12/07 10:56:35;;;;;;;7.18;1.00;;;6.30;99.90;;;;;;5028555;28;20029;-82
2022/12/07 10:59:26;;;;;;;4.47;1.00;;;6.40;99.90;;;;;;5024102;28;20036;-80
2022/12/07 11:01:58;;;;;;;6.20;1.20;;;6.50;99.90;;;;;;5040550;28;20520;-80
2022/12/07 11:04:31;;;;;;;6.13;1.10;;;6.50;99.90;;;;;;5040007;28;20365;-81
2022/12/07 11:07:34;;;;;;;5.38;1.50;;;6.50;99.90;;;;;;5024055;28;20498;-81
2022/12/07 11:10:17;;;;;;;6.57;1.33;;;6.40;99.90;;;;;;5030533;28;20045;-81
2022/12/07 11:12:56;;;;;;;;;;;6.30;99.90;;;;;;5015321;28;20029;-81
2022/12/07 11:16:27;;;;;;;12.60;1.95;;;6.10;99.90;;;;;;5012572;28;19913;-81
2022/12/07 11:19:04;;;;;;;4.70;1.50;;;5.90;99.90;;;;;;4977696;28;20051;-80
2022/12/07 11:21:39;;;;;;;4.45;1.05;;;5.80;99.90;;;;;;4991570;28;20042;-78
2022/12/07 11:24:24;;;;;;;7.68;1.50;;;5.80;99.90;;;;;;5021017;28;20034;-79
2022/12/07 11:27:05;;;;;;;5.20;1.42;;;5.70;99.90;;;;;;5017034;28;20028;-81
2022/12/07 11:29:50;;;;;;;4.43;0.98;;;5.70;99.90;;;;;;5029101;28;20037;-80
2022/12/07 11:32:40;;;;;;;5.18;1.77;;;5.70;99.90;;;;;;5013234;28;20045;-79
2022/12/07 11:35:46;;;;;;;6.32;1.08;;;5.70;99.90;;;;;;5000248;28;20380;-81
2022/12/07 11:38:21;;;;;;;10.13;1.48;;;5.70;99.90;;;;;;5027934;28;20071;-80
2022/12/07 11:40:50;;;;;;;10.25;3.35;;;5.70;99.90;;;;;;5010011;28;20037;-79
2022/12/07 11:43:27;;;;;;;6.30;1.63;;;5.70;99.90;;;;;;5035409;28;20479;-82
2022/12/07 11:45:57;;;;;;;5.95;1.05;;;5.80;99.90;;;;;;5027068;28;20040;-80
2022/12/07 11:48:38;;;;;;;6.00;1.02;;;5.80;99.90;;;;;;5040331;28;20044;-81
2022/12/07 11:51:07;;;;;;;3.42;0.93;;;5.80;99.90;;;;;;5047891;28;20036;-82
2022/12/07 11:53:55;;;;;;;4.05;0.95;;;5.80;99.90;;;;;;5011465;28;20030;-80
2022/12/07 11:56:26;;;;;;;4.13;0.80;;;5.90;99.90;;;;;;5025271;28;20045;-81
2022/12/07 11:59:17;;;;;;;4.40;0.90;;;6.00;99.90;;;;;;5028816;28;20041;-83
2022/12/07 12:02:01;;;;;;;4.43;1.10;;;6.00;99.90;;;;;;5037689;28;20022;-80
2022/12/07 12:04:41;;;;;;;3.95;0.70;;;6.00;99.90;;;;;;5025802;28;20049;-82
2022/12/07 12:07:11;;;;;;;3.70;0.88;;;5.90;99.90;;;;;;5035992;28;20483;-83
2022/12/07 12:09:56;;;;;;;6.03;0.70;;;5.90;99.90;;;;;;5026809;28;20044;-81
2022/12/07 12:12:58;;;;;;;7.28;1.38;;;5.80;99.90;;;;;;5004851;28;20028;-81
2022/12/07 12:15:48;;;;;;;3.53;0.60;;;5.80;99.90;;;;;;5006079;28;20045;-82
2022/12/07 12:18:47;;;;;;;9.27;0.82;;;5.70;99.90;;;;;;5023054;28;20057;-80
2022/12/07 12:21:17;;;;;;;3.00;0.80;;;5.70;99.90;;;;;;5020954;28;20052;-83
2022/12/07 12:24:11;;;;;;;7.30;2.70;;;5.70;99.90;;;;;;5023985;28;20466;-82
2022/12/07 12:26:39;;;;;;;12.82;4.28;;;6.00;99.90;;;;;;5002824;28;20533;-81
2022/12/07 12:29:18;;;;;;;11.00;4.07;;;6.20;99.90;;;;;;5008375;28;20029;-80
2022/12/07 12:32:04;;;;;;;11.68;2.70;;;6.40;99.90;;;;;;5018093;28;20037;-80
2022/12/07 12:34:56;;;;;;;6.88;1.90;;;6.50;99.90;;;;;;5026110;28;20025;-79
2022/12/07 12:37:35;;;;;;;5.25;1.50;;;6.50;99.90;;;;;;5032310;28;20041;-81
2022/12/07 12:40:16;;;;;;;6.68;1.63;;;6.50;99.90;;;;;;5033096;28;20044;-81
2022/12/07 12:42:56;;;;;;;5.07;0.98;;;6.70;99.90;;;;;;5042041;28;20055;-79
2022/12/07 12:45:29;;;;;;;5.82;0.95;;;6.90;99.90;;;;;;5029554;28;20029;-79
2022/12/07 12:48:28;;;;;;;3.70;0.73;;;7.00;99.90;;;;;;5025841;28;20381;-80
2022/12/07 12:51:34;;;;;;;6.57;0.95;;;7.20;99.90;;;;;;5040369;28;20020;-81
2022/12/07 12:54:22;;;;;;;4.63;0.77;;;7.10;99.90;;;;;;5034733;28;20418;-80
2022/12/07 12:57:06;;;;;;;7.18;0.90;;;7.00;99.90;;;;;;5020765;28;20861;-79
2022/12/07 12:59:56;;;;;;;5.13;0.70;;;6.80;99.90;;;;;;5036028;28;20068;-80
2022/12/07 13:02:28;;;;;;;4.45;0.57;;;6.70;99.90;;;;;;5012046;28;20048;-79
2022/12/07 13:04:59;;;;;;;3.90;0.60;;;6.60;99.90;;;;;;5023935;28;20025;-80
2022/12/07 13:07:46;;;;;;;4.68;0.77;;;6.60;99.90;;;;;;5045731;28;20025;-81
2022/12/07 13:10:35;;;;;;;7.40;0.90;;;6.50;99.90;;;;;;5026646;28;20041;-80
2022/12/07 13:13:24;;;;;;;3.25;0.80;;;6.60;99.90;;;;;;5037454;28;20032;-80
2022/12/07 13:16:10;;;;;;;5.85;1.40;;;6.60;99.90;;;;;;5009591;28;20044;-80
2022/12/07 13:18:38;;;;;;;7.72;1.05;;;6.70;99.90;;;;;;5039271;28;20049;-81
2022/12/07 13:21:07;;;;;;;5.43;1.05;;;6.60;99.90;;;;;;5044648;28;20052;-80
2022/12/07 13:23:45;;;;;;;8.32;1.67;;;6.60;99.90;;;;;;5045513;28;20487;-80
2022/12/07 13:26:36;;;;;;;5.18;1.63;;;6.60;99.90;;;;;;5023157;28;20032;-80
2022/12/07 13:29:15;;;;;;;3.55;0.95;;;6.60;99.90;;;;;;5043889;28;20048;-80
2022/12/07 13:31:49;;;;;;;7.78;1.10;;;6.70;99.90;;;;;;5031438;28;20033;-80